sensor_id;sensor_type;location;lat;lon;timestamp;P1;durP1;ratioP1;P2;durP2;ratioP2
11034;SDS011;5571;48.110;-1.706;2023-03-16T00:02:02;7.43;;;1.70;;
11034;SDS011;5571;48.110;-1.706;2023-03-16T00:04:28;9.27;;;2.10;;
11034;SDS011;5571;48.110;-1.706;2023-03-16T00:06:54;7.53;;;2.30;;
11034;SDS011;5571;48.110;-1.706;2023-03-16T00:09:21;10.63;;;2.20;;
11034;SDS011;5571;48.110;-1.706;2023-03-16T00:12:01;9.87;;;1.97;;
11034;SDS011;5571;48.110;-1.706;2023-03-16T00:14:27;7.60;;;1.87;;
11034;SDS011;5571;48.110;-1.706;2023-03-16T00:16:54;8.77;;;1.80;;
11034;SDS011;5571;48.110;-1.706;2023-03-16T00:19:19;8.27;;;2.00;;
11034;SDS011;5571;48.110;-1.706;2023-03-16T00:21:47;7.87;;;1.80;;
11034;SDS011;5571;48.110;-1.706;2023-03-16T00:24:14;10.00;;;2.07;;
11034;SDS011;5571;48.110;-1.706;2023-03-16T00:26:43;4.63;;;1.50;;
11034;SDS011;5571;48.110;-1.706;2023-03-16T00:29:09;10.40;;;2.17;;
11034;SDS011;5571;48.110;-1.706;2023-03-16T00:31:35;7.50;;;1.87;;
11034;SDS011;5571;48.110;-1.706;2023-03-16T00:34:02;6.40;;;1.70;;
11034;SDS011;5571;48.110;-1.706;2023-03-16T00:36:27;7.53;;;1.70;;
11034;SDS011;5571;48.110;-1.706;2023-03-16T00:38:54;7.40;;;1.80;;
11034;SDS011;5571;48.110;-1.706;2023-03-16T00:41:19;7.60;;;1.73;;
11034;SDS011;5571;48.110;-1.706;2023-03-16T00:43:46;6.37;;;1.50;;
11034;SDS011;5571;48.110;-1.706;2023-03-16T00:46:16;11.17;;;1.90;;
11034;SDS011;5571;48.110;-1.706;2023-03-16T00:48:43;9.77;;;1.97;;
11034;SDS011;5571;48.110;-1.706;2023-03-16T00:51:11;8.93;;;2.27;;
11034;SDS011;5571;48.110;-1.706;2023-03-16T00:53:39;7.43;;;1.90;;
11034;SDS011;5571;48.110;-1.706;2023-03-16T00:56:06;7.93;;;1.90;;
11034;SDS011;5571;48.110;-1.706;2023-03-16T00:58:34;9.50;;;2.07;;
11034;SDS011;5571;48.110;-1.706;2023-03-16T01:01:34;7.20;;;2.07;;
11034;SDS011;5571;48.110;-1.706;2023-03-16T01:03:53;7.30;;;1.43;;
11034;SDS011;5571;48.110;-1.706;2023-03-16T01:06:18;8.37;;;2.30;;
11034;SDS011;5571;48.110;-1.706;2023-03-16T01:08:44;8.60;;;1.70;;
11034;SDS011;5571;48.110;-1.706;2023-03-16T01:11:17;7.97;;;1.73;;
11034;SDS011;5571;48.110;-1.706;2023-03-16T01:13:46;6.87;;;1.87;;
11034;SDS011;5571;48.110;-1.706;2023-03-16T01:16:13;11.53;;;2.17;;
11034;SDS011;5571;48.110;-1.706;2023-03-16T01:18:39;8.27;;;2.33;;
11034;SDS011;5571;48.110;-1.706;2023-03-16T01:21:06;12.57;;;1.87;;
11034;SDS011;5571;48.110;-1.706;2023-03-16T01:23:33;11.67;;;1.93;;
11034;SDS011;5571;48.110;-1.706;2023-03-16T01:25:59;11.37;;;2.17;;
11034;SDS011;5571;48.110;-1.706;2023-03-16T01:28:27;8.00;;;2.13;;
11034;SDS011;5571;48.110;-1.706;2023-03-16T01:30:54;8.00;;;2.00;;
11034;SDS011;5571;48.110;-1.706;2023-03-16T01:33:26;8.87;;;1.93;;
11034;SDS011;5571;48.110;-1.706;2023-03-16T01:35:53;12.03;;;2.27;;
11034;SDS011;5571;48.110;-1.706;2023-03-16T01:38:20;7.20;;;1.93;;
11034;SDS011;5571;48.110;-1.706;2023-03-16T01:40:46;10.33;;;2.50;;
11034;SDS011;5571;48.110;-1.706;2023-03-16T01:43:15;7.07;;;2.03;;
11034;SDS011;5571;48.110;-1.706;2023-03-16T01:48:32;11.07;;;2.30;;
11034;SDS011;5571;48.110;-1.706;2023-03-16T01:51:04;7.80;;;2.03;;
11034;SDS011;5571;48.110;-1.706;2023-03-16T01:53:34;11.27;;;2.43;;
11034;SDS011;5571;48.110;-1.706;2023-03-16T01:56:02;10.23;;;2.20;;
11034;SDS011;5571;48.110;-1.706;2023-03-16T01:58:29;9.33;;;2.40;;
11034;SDS011;5571;48.110;-1.706;2023-03-16T02:00:56;10.67;;;2.00;;
11034;SDS011;5571;48.110;-1.706;2023-03-16T02:03:22;7.80;;;2.30;;
11034;SDS011;5571;48.110;-1.706;2023-03-16T02:08:14;7.97;;;2.27;;
11034;SDS011;5571;48.110;-1.706;2023-03-16T02:10:41;10.03;;;2.23;;
11034;SDS011;5571;48.110;-1.706;2023-03-16T02:13:09;10.10;;;2.00;;
11034;SDS011;5571;48.110;-1.706;2023-03-16T02:15:35;8.70;;;2.10;;
11034;SDS011;5571;48.110;-1.706;2023-03-16T02:18:01;13.30;;;2.33;;
11034;SDS011;5571;48.110;-1.706;2023-03-16T02:23:15;13.83;;;2.83;;
11034;SDS011;5571;48.110;-1.706;2023-03-16T02:28:44;8.80;;;2.17;;
11034;SDS011;5571;48.110;-1.706;2023-03-16T02:31:29;6.13;;;2.00;;
11034;SDS011;5571;48.110;-1.706;2023-03-16T02:33:55;7.27;;;2.03;;
11034;SDS011;5571;48.110;-1.706;2023-03-16T02:36:22;9.17;;;2.53;;
11034;SDS011;5571;48.110;-1.706;2023-03-16T02:38:48;7.23;;;2.17;;
11034;SDS011;5571;48.110;-1.706;2023-03-16T02:41:15;8.97;;;2.70;;
11034;SDS011;5571;48.110;-1.706;2023-03-16T02:46:26;7.97;;;2.00;;
11034;SDS011;5571;48.110;-1.706;2023-03-16T02:51:27;12.13;;;2.23;;
11034;SDS011;5571;48.110;-1.706;2023-03-16T02:53:53;13.03;;;2.33;;
11034;SDS011;5571;48.110;-1.706;2023-03-16T02:56:19;10.87;;;2.30;;
11034;SDS011;5571;48.110;-1.706;2023-03-16T02:58:46;4.87;;;2.20;;
11034;SDS011;5571;48.110;-1.706;2023-03-16T03:01:12;6.10;;;2.33;;
11034;SDS011;5571;48.110;-1.706;2023-03-16T03:03:37;7.57;;;2.20;;
11034;SDS011;5571;48.110;-1.706;2023-03-16T03:06:03;8.93;;;2.47;;
11034;SDS011;5571;48.110;-1.706;2023-03-16T03:08:29;9.90;;;2.70;;
11034;SDS011;5571;48.110;-1.706;2023-03-16T03:10:56;7.93;;;2.60;;
11034;SDS011;5571;48.110;-1.706;2023-03-16T03:13:23;8.80;;;2.50;;
11034;SDS011;5571;48.110;-1.706;2023-03-16T03:15:48;7.67;;;2.57;;
11034;SDS011;5571;48.110;-1.706;2023-03-16T03:18:14;11.50;;;2.60;;
11034;SDS011;5571;48.110;-1.706;2023-03-16T03:20:40;12.03;;;2.60;;
11034;SDS011;5571;48.110;-1.706;2023-03-16T03:23:05;6.57;;;2.20;;
11034;SDS011;5571;48.110;-1.706;2023-03-16T03:25:31;8.93;;;2.60;;
11034;SDS011;5571;48.110;-1.706;2023-03-16T03:27:59;7.77;;;2.60;;
11034;SDS011;5571;48.110;-1.706;2023-03-16T03:30:26;8.83;;;2.63;;
11034;SDS011;5571;48.110;-1.706;2023-03-16T03:32:52;9.03;;;2.77;;
11034;SDS011;5571;48.110;-1.706;2023-03-16T03:35:19;8.90;;;2.93;;
11034;SDS011;5571;48.110;-1.706;2023-03-16T03:37:45;7.80;;;3.00;;
11034;SDS011;5571;48.110;-1.706;2023-03-16T03:40:12;6.47;;;2.90;;
11034;SDS011;5571;48.110;-1.706;2023-03-16T03:42:40;9.80;;;2.40;;
11034;SDS011;5571;48.110;-1.706;2023-03-16T03:45:07;11.43;;;3.20;;
11034;SDS011;5571;48.110;-1.706;2023-03-16T03:47:36;12.07;;;2.90;;
11034;SDS011;5571;48.110;-1.706;2023-03-16T03:50:02;11.37;;;2.70;;
11034;SDS011;5571;48.110;-1.706;2023-03-16T03:52:28;8.47;;;2.70;;
11034;SDS011;5571;48.110;-1.706;2023-03-16T03:54:54;12.97;;;2.60;;
11034;SDS011;5571;48.110;-1.706;2023-03-16T03:57:19;10.70;;;2.70;;
11034;SDS011;5571;48.110;-1.706;2023-03-16T03:59:45;7.37;;;2.63;;
11034;SDS011;5571;48.110;-1.706;2023-03-16T04:02:11;8.10;;;2.40;;
11034;SDS011;5571;48.110;-1.706;2023-03-16T04:04:37;6.33;;;2.40;;
11034;SDS011;5571;48.110;-1.706;2023-03-16T04:07:03;5.77;;;2.43;;
11034;SDS011;5571;48.110;-1.706;2023-03-16T04:09:29;11.57;;;2.67;;
11034;SDS011;5571;48.110;-1.706;2023-03-16T04:11:59;5.50;;;2.70;;
11034;SDS011;5571;48.110;-1.706;2023-03-16T04:14:26;4.93;;;2.47;;
11034;SDS011;5571;48.110;-1.706;2023-03-16T04:16:52;11.13;;;3.23;;
11034;SDS011;5571;48.110;-1.706;2023-03-16T04:19:18;8.10;;;3.10;;
11034;SDS011;5571;48.110;-1.706;2023-03-16T04:21:48;7.70;;;2.87;;
11034;SDS011;5571;48.110;-1.706;2023-03-16T04:24:14;9.67;;;2.93;;
11034;SDS011;5571;48.110;-1.706;2023-03-16T04:26:40;9.77;;;2.70;;
11034;SDS011;5571;48.110;-1.706;2023-03-16T04:29:08;6.63;;;2.80;;
11034;SDS011;5571;48.110;-1.706;2023-03-16T04:31:35;7.53;;;2.87;;
11034;SDS011;5571;48.110;-1.706;2023-03-16T04:34:00;4.77;;;2.83;;
11034;SDS011;5571;48.110;-1.706;2023-03-16T04:36:26;9.90;;;3.23;;
11034;SDS011;5571;48.110;-1.706;2023-03-16T04:38:52;7.63;;;2.90;;
11034;SDS011;5571;48.110;-1.706;2023-03-16T04:41:17;8.50;;;2.97;;
11034;SDS011;5571;48.110;-1.706;2023-03-16T04:43:43;7.70;;;3.10;;
11034;SDS011;5571;48.110;-1.706;2023-03-16T04:46:09;6.13;;;3.07;;
11034;SDS011;5571;48.110;-1.706;2023-03-16T04:48:35;5.47;;;3.07;;
11034;SDS011;5571;48.110;-1.706;2023-03-16T04:51:02;5.50;;;2.73;;
11034;SDS011;5571;48.110;-1.706;2023-03-16T04:53:31;8.57;;;2.87;;
11034;SDS011;5571;48.110;-1.706;2023-03-16T04:55:57;7.27;;;3.43;;
11034;SDS011;5571;48.110;-1.706;2023-03-16T04:58:23;6.60;;;3.00;;
11034;SDS011;5571;48.110;-1.706;2023-03-16T05:00:53;5.03;;;3.20;;
11034;SDS011;5571;48.110;-1.706;2023-03-16T05:03:22;9.10;;;3.80;;
11034;SDS011;5571;48.110;-1.706;2023-03-16T05:05:47;7.70;;;3.23;;
11034;SDS011;5571;48.110;-1.706;2023-03-16T05:08:14;8.60;;;3.70;;
11034;SDS011;5571;48.110;-1.706;2023-03-16T05:10:40;5.97;;;3.20;;
11034;SDS011;5571;48.110;-1.706;2023-03-16T05:13:06;10.87;;;3.60;;
11034;SDS011;5571;48.110;-1.706;2023-03-16T05:15:32;5.17;;;2.50;;
11034;SDS011;5571;48.110;-1.706;2023-03-16T05:17:58;7.73;;;3.30;;
11034;SDS011;5571;48.110;-1.706;2023-03-16T05:20:24;8.60;;;3.53;;
11034;SDS011;5571;48.110;-1.706;2023-03-16T05:22:49;6.00;;;3.00;;
11034;SDS011;5571;48.110;-1.706;2023-03-16T05:25:15;8.30;;;3.27;;
11034;SDS011;5571;48.110;-1.706;2023-03-16T05:27:49;8.20;;;3.80;;
11034;SDS011;5571;48.110;-1.706;2023-03-16T05:30:17;7.57;;;3.00;;
11034;SDS011;5571;48.110;-1.706;2023-03-16T05:32:43;7.97;;;3.40;;
11034;SDS011;5571;48.110;-1.706;2023-03-16T05:35:09;6.07;;;2.60;;
11034;SDS011;5571;48.110;-1.706;2023-03-16T05:37:37;5.17;;;2.93;;
11034;SDS011;5571;48.110;-1.706;2023-03-16T05:40:05;6.60;;;2.93;;
11034;SDS011;5571;48.110;-1.706;2023-03-16T05:42:44;4.07;;;2.80;;
11034;SDS011;5571;48.110;-1.706;2023-03-16T05:45:12;3.17;;;2.30;;
11034;SDS011;5571;48.110;-1.706;2023-03-16T05:47:39;8.90;;;3.20;;
11034;SDS011;5571;48.110;-1.706;2023-03-16T05:50:06;7.50;;;3.20;;
11034;SDS011;5571;48.110;-1.706;2023-03-16T05:52:34;4.40;;;2.57;;
11034;SDS011;5571;48.110;-1.706;2023-03-16T05:54:59;6.00;;;2.83;;
11034;SDS011;5571;48.110;-1.706;2023-03-16T05:57:25;10.07;;;3.07;;
11034;SDS011;5571;48.110;-1.706;2023-03-16T05:59:50;6.03;;;2.63;;
11034;SDS011;5571;48.110;-1.706;2023-03-16T06:02:16;7.80;;;2.67;;
11034;SDS011;5571;48.110;-1.706;2023-03-16T06:04:42;6.73;;;2.93;;
11034;SDS011;5571;48.110;-1.706;2023-03-16T06:07:08;6.77;;;2.90;;
11034;SDS011;5571;48.110;-1.706;2023-03-16T06:09:34;7.30;;;2.80;;
11034;SDS011;5571;48.110;-1.706;2023-03-16T06:12:00;4.97;;;3.03;;
11034;SDS011;5571;48.110;-1.706;2023-03-16T06:14:26;9.93;;;2.97;;
11034;SDS011;5571;48.110;-1.706;2023-03-16T06:16:52;9.60;;;3.07;;
11034;SDS011;5571;48.110;-1.706;2023-03-16T06:19:17;4.60;;;2.47;;
11034;SDS011;5571;48.110;-1.706;2023-03-16T06:21:43;4.53;;;2.47;;
11034;SDS011;5571;48.110;-1.706;2023-03-16T06:24:08;4.83;;;3.00;;
11034;SDS011;5571;48.110;-1.706;2023-03-16T06:26:34;4.90;;;3.13;;
11034;SDS011;5571;48.110;-1.706;2023-03-16T06:29:00;7.87;;;2.80;;
11034;SDS011;5571;48.110;-1.706;2023-03-16T06:31:26;4.10;;;2.50;;
11034;SDS011;5571;48.110;-1.706;2023-03-16T06:33:52;5.20;;;2.83;;
11034;SDS011;5571;48.110;-1.706;2023-03-16T06:36:17;5.90;;;3.03;;
11034;SDS011;5571;48.110;-1.706;2023-03-16T06:38:43;4.50;;;2.70;;
11034;SDS011;5571;48.110;-1.706;2023-03-16T06:41:09;7.27;;;2.90;;
11034;SDS011;5571;48.110;-1.706;2023-03-16T06:43:34;6.27;;;2.80;;
11034;SDS011;5571;48.110;-1.706;2023-03-16T06:46:00;5.63;;;2.97;;
11034;SDS011;5571;48.110;-1.706;2023-03-16T06:48:27;10.03;;;3.23;;
11034;SDS011;5571;48.110;-1.706;2023-03-16T06:50:53;6.27;;;2.80;;
11034;SDS011;5571;48.110;-1.706;2023-03-16T06:53:19;7.33;;;2.80;;
11034;SDS011;5571;48.110;-1.706;2023-03-16T06:55:46;9.57;;;3.07;;
11034;SDS011;5571;48.110;-1.706;2023-03-16T06:58:12;6.10;;;2.90;;
11034;SDS011;5571;48.110;-1.706;2023-03-16T07:00:38;4.57;;;3.00;;
11034;SDS011;5571;48.110;-1.706;2023-03-16T07:03:03;5.47;;;2.83;;
11034;SDS011;5571;48.110;-1.706;2023-03-16T07:05:29;6.77;;;3.83;;
11034;SDS011;5571;48.110;-1.706;2023-03-16T07:07:55;7.63;;;4.07;;
11034;SDS011;5571;48.110;-1.706;2023-03-16T07:10:21;9.63;;;4.30;;
11034;SDS011;5571;48.110;-1.706;2023-03-16T07:12:47;10.27;;;5.10;;
11034;SDS011;5571;48.110;-1.706;2023-03-16T07:15:14;10.67;;;6.10;;
11034;SDS011;5571;48.110;-1.706;2023-03-16T07:17:40;13.07;;;7.17;;
11034;SDS011;5571;48.110;-1.706;2023-03-16T07:20:07;18.23;;;6.60;;
11034;SDS011;5571;48.110;-1.706;2023-03-16T07:22:35;18.40;;;6.30;;
11034;SDS011;5571;48.110;-1.706;2023-03-16T07:25:01;9.63;;;5.97;;
11034;SDS011;5571;48.110;-1.706;2023-03-16T07:27:26;10.53;;;5.80;;
11034;SDS011;5571;48.110;-1.706;2023-03-16T07:29:53;8.77;;;5.50;;
11034;SDS011;5571;48.110;-1.706;2023-03-16T07:32:19;12.90;;;4.87;;
11034;SDS011;5571;48.110;-1.706;2023-03-16T07:34:46;14.47;;;5.10;;
11034;SDS011;5571;48.110;-1.706;2023-03-16T07:37:11;12.63;;;5.00;;
11034;SDS011;5571;48.110;-1.706;2023-03-16T07:39:38;10.80;;;4.40;;
11034;SDS011;5571;48.110;-1.706;2023-03-16T07:42:03;16.43;;;4.50;;
11034;SDS011;5571;48.110;-1.706;2023-03-16T07:44:29;7.97;;;3.60;;
11034;SDS011;5571;48.110;-1.706;2023-03-16T07:46:55;7.17;;;3.03;;
11034;SDS011;5571;48.110;-1.706;2023-03-16T07:49:21;17.83;;;3.50;;
11034;SDS011;5571;48.110;-1.706;2023-03-16T07:51:47;6.03;;;2.80;;
11034;SDS011;5571;48.110;-1.706;2023-03-16T07:54:13;8.47;;;2.50;;
11034;SDS011;5571;48.110;-1.706;2023-03-16T07:56:39;6.00;;;2.47;;
11034;SDS011;5571;48.110;-1.706;2023-03-16T07:59:05;9.93;;;2.77;;
11034;SDS011;5571;48.110;-1.706;2023-03-16T08:01:31;15.80;;;2.90;;
11034;SDS011;5571;48.110;-1.706;2023-03-16T08:03:58;12.50;;;3.00;;
11034;SDS011;5571;48.110;-1.706;2023-03-16T08:06:25;9.20;;;2.87;;
11034;SDS011;5571;48.110;-1.706;2023-03-16T08:08:51;6.20;;;2.90;;
11034;SDS011;5571;48.110;-1.706;2023-03-16T08:11:17;7.00;;;2.90;;
11034;SDS011;5571;48.110;-1.706;2023-03-16T08:13:48;4.20;;;2.70;;
11034;SDS011;5571;48.110;-1.706;2023-03-16T08:16:18;5.03;;;2.97;;
11034;SDS011;5571;48.110;-1.706;2023-03-16T08:18:50;7.23;;;2.63;;
11034;SDS011;5571;48.110;-1.706;2023-03-16T08:21:17;5.37;;;2.20;;
11034;SDS011;5571;48.110;-1.706;2023-03-16T08:23:44;4.50;;;2.17;;
11034;SDS011;5571;48.110;-1.706;2023-03-16T08:26:15;4.30;;;2.73;;
11034;SDS011;5571;48.110;-1.706;2023-03-16T08:28:41;3.23;;;2.17;;
11034;SDS011;5571;48.110;-1.706;2023-03-16T08:31:11;8.83;;;2.20;;
11034;SDS011;5571;48.110;-1.706;2023-03-16T08:33:38;6.63;;;2.30;;
11034;SDS011;5571;48.110;-1.706;2023-03-16T08:36:09;11.00;;;2.57;;
11034;SDS011;5571;48.110;-1.706;2023-03-16T08:38:37;3.53;;;1.90;;
11034;SDS011;5571;48.110;-1.706;2023-03-16T08:41:07;5.30;;;2.10;;
11034;SDS011;5571;48.110;-1.706;2023-03-16T08:43:33;6.47;;;1.97;;
11034;SDS011;5571;48.110;-1.706;2023-03-16T08:45:59;2.60;;;1.80;;
11034;SDS011;5571;48.110;-1.706;2023-03-16T08:48:25;5.70;;;2.20;;
11034;SDS011;5571;48.110;-1.706;2023-03-16T08:50:52;4.33;;;1.70;;
11034;SDS011;5571;48.110;-1.706;2023-03-16T08:53:19;3.40;;;1.57;;
11034;SDS011;5571;48.110;-1.706;2023-03-16T08:55:45;1.77;;;1.67;;
11034;SDS011;5571;48.110;-1.706;2023-03-16T08:58:11;4.50;;;1.80;;
11034;SDS011;5571;48.110;-1.706;2023-03-16T09:00:37;5.83;;;1.73;;
11034;SDS011;5571;48.110;-1.706;2023-03-16T09:03:04;5.57;;;2.20;;
11034;SDS011;5571;48.110;-1.706;2023-03-16T09:05:30;3.40;;;1.90;;
11034;SDS011;5571;48.110;-1.706;2023-03-16T09:07:56;3.67;;;1.70;;
11034;SDS011;5571;48.110;-1.706;2023-03-16T09:10:23;5.43;;;1.90;;
11034;SDS011;5571;48.110;-1.706;2023-03-16T09:12:50;2.70;;;1.87;;
11034;SDS011;5571;48.110;-1.706;2023-03-16T09:15:17;3.70;;;1.70;;
11034;SDS011;5571;48.110;-1.706;2023-03-16T09:17:44;2.33;;;1.70;;
11034;SDS011;5571;48.110;-1.706;2023-03-16T09:20:11;1.60;;;1.50;;
11034;SDS011;5571;48.110;-1.706;2023-03-16T09:22:40;5.60;;;2.00;;
11034;SDS011;5571;48.110;-1.706;2023-03-16T09:25:06;4.90;;;2.00;;
11034;SDS011;5571;48.110;-1.706;2023-03-16T09:27:33;3.13;;;1.93;;
11034;SDS011;5571;48.110;-1.706;2023-03-16T09:30:00;4.83;;;1.90;;
11034;SDS011;5571;48.110;-1.706;2023-03-16T09:32:28;3.87;;;1.67;;
11034;SDS011;5571;48.110;-1.706;2023-03-16T09:34:54;2.87;;;1.73;;
11034;SDS011;5571;48.110;-1.706;2023-03-16T09:37:21;8.70;;;2.13;;
11034;SDS011;5571;48.110;-1.706;2023-03-16T09:39:47;5.93;;;1.80;;
11034;SDS011;5571;48.110;-1.706;2023-03-16T09:47:45;7.00;;;1.73;;
11034;SDS011;5571;48.110;-1.706;2023-03-16T09:50:21;5.50;;;1.93;;
11034;SDS011;5571;48.110;-1.706;2023-03-16T09:55:28;2.03;;;1.33;;
11034;SDS011;5571;48.110;-1.706;2023-03-16T09:57:58;2.73;;;1.80;;
11034;SDS011;5571;48.110;-1.706;2023-03-16T10:00:26;3.77;;;1.57;;
11034;SDS011;5571;48.110;-1.706;2023-03-16T10:05:37;2.67;;;2.10;;
11034;SDS011;5571;48.110;-1.706;2023-03-16T10:16:04;9.53;;;4.30;;
11034;SDS011;5571;48.110;-1.706;2023-03-16T10:18:45;10.93;;;5.60;;
11034;SDS011;5571;48.110;-1.706;2023-03-16T10:21:14;11.30;;;4.27;;
11034;SDS011;5571;48.110;-1.706;2023-03-16T10:23:44;5.90;;;2.77;;
11034;SDS011;5571;48.110;-1.706;2023-03-16T10:26:20;13.53;;;6.13;;
11034;SDS011;5571;48.110;-1.706;2023-03-16T10:28:50;15.83;;;9.20;;
11034;SDS011;5571;48.110;-1.706;2023-03-16T10:31:18;7.17;;;3.93;;
11034;SDS011;5571;48.110;-1.706;2023-03-16T10:33:46;8.83;;;3.83;;
11034;SDS011;5571;48.110;-1.706;2023-03-16T10:36:30;9.60;;;4.33;;
11034;SDS011;5571;48.110;-1.706;2023-03-16T10:41:27;11.73;;;3.37;;
11034;SDS011;5571;48.110;-1.706;2023-03-16T10:43:55;8.67;;;2.80;;
11034;SDS011;5571;48.110;-1.706;2023-03-16T10:46:24;10.90;;;4.60;;
11034;SDS011;5571;48.110;-1.706;2023-03-16T10:48:52;14.53;;;5.47;;
11034;SDS011;5571;48.110;-1.706;2023-03-16T10:51:23;9.53;;;3.93;;
11034;SDS011;5571;48.110;-1.706;2023-03-16T10:53:51;7.37;;;2.10;;
11034;SDS011;5571;48.110;-1.706;2023-03-16T10:56:19;8.87;;;3.27;;
11034;SDS011;5571;48.110;-1.706;2023-03-16T10:58:48;9.13;;;3.13;;
11034;SDS011;5571;48.110;-1.706;2023-03-16T11:03:46;9.30;;;3.87;;
11034;SDS011;5571;48.110;-1.706;2023-03-16T11:06:22;9.63;;;3.47;;
11034;SDS011;5571;48.110;-1.706;2023-03-16T11:08:50;7.53;;;3.10;;
11034;SDS011;5571;48.110;-1.706;2023-03-16T11:11:28;8.27;;;3.37;;
11034;SDS011;5571;48.110;-1.706;2023-03-16T11:13:57;11.80;;;3.23;;
11034;SDS011;5571;48.110;-1.706;2023-03-16T11:18:51;9.40;;;4.10;;
11034;SDS011;5571;48.110;-1.706;2023-03-16T11:23:56;9.93;;;2.70;;
11034;SDS011;5571;48.110;-1.706;2023-03-16T11:26:33;6.67;;;2.80;;
11034;SDS011;5571;48.110;-1.706;2023-03-16T11:29:04;9.30;;;3.70;;
11034;SDS011;5571;48.110;-1.706;2023-03-16T11:34:33;6.00;;;3.13;;
11034;SDS011;5571;48.110;-1.706;2023-03-16T11:39:35;12.37;;;3.57;;
11034;SDS011;5571;48.110;-1.706;2023-03-16T11:45:00;5.93;;;3.33;;
11034;SDS011;5571;48.110;-1.706;2023-03-16T11:47:38;5.40;;;1.90;;
11034;SDS011;5571;48.110;-1.706;2023-03-16T11:50:31;5.10;;;2.40;;
11034;SDS011;5571;48.110;-1.706;2023-03-16T12:04:23;16.90;;;6.07;;
11034;SDS011;5571;48.110;-1.706;2023-03-16T12:12:28;8.83;;;4.00;;
11034;SDS011;5571;48.110;-1.706;2023-03-16T12:15:25;9.07;;;4.03;;
11034;SDS011;5571;48.110;-1.706;2023-03-16T12:18:07;3.87;;;1.80;;
11034;SDS011;5571;48.110;-1.706;2023-03-16T12:20:43;9.33;;;4.07;;
11034;SDS011;5571;48.110;-1.706;2023-03-16T12:23:20;6.00;;;3.10;;
11034;SDS011;5571;48.110;-1.706;2023-03-16T12:25:59;5.00;;;2.00;;
11034;SDS011;5571;48.110;-1.706;2023-03-16T12:28:26;7.23;;;2.30;;
11034;SDS011;5571;48.110;-1.706;2023-03-16T12:33:25;2.67;;;1.77;;
11034;SDS011;5571;48.110;-1.706;2023-03-16T12:36:00;7.78;;;3.30;;
11034;SDS011;5571;48.110;-1.706;2023-03-16T12:38:55;12.73;;;6.45;;
11034;SDS011;5571;48.110;-1.706;2023-03-16T12:44:26;6.43;;;3.20;;
11034;SDS011;5571;48.110;-1.706;2023-03-16T12:49:43;8.30;;;3.40;;
11034;SDS011;5571;48.110;-1.706;2023-03-16T12:52:11;5.47;;;3.07;;
11034;SDS011;5571;48.110;-1.706;2023-03-16T12:57:38;7.90;;;3.63;;
11034;SDS011;5571;48.110;-1.706;2023-03-16T13:00:06;8.03;;;3.20;;
11034;SDS011;5571;48.110;-1.706;2023-03-16T13:02:41;8.70;;;3.90;;
11034;SDS011;5571;48.110;-1.706;2023-03-16T13:05:34;6.97;;;2.43;;
11034;SDS011;5571;48.110;-1.706;2023-03-16T13:08:05;9.00;;;3.00;;
11034;SDS011;5571;48.110;-1.706;2023-03-16T13:10:34;6.50;;;2.85;;
11034;SDS011;5571;48.110;-1.706;2023-03-16T13:15:40;6.30;;;3.60;;
11034;SDS011;5571;48.110;-1.706;2023-03-16T13:28:27;5.32;;;1.50;;
11034;SDS011;5571;48.110;-1.706;2023-03-16T13:30:57;7.45;;;1.83;;
11034;SDS011;5571;48.110;-1.706;2023-03-16T13:33:25;7.10;;;1.88;;
11034;SDS011;5571;48.110;-1.706;2023-03-16T13:35:53;6.95;;;2.88;;
11034;SDS011;5571;48.110;-1.706;2023-03-16T13:38:21;2.85;;;1.83;;
11034;SDS011;5571;48.110;-1.706;2023-03-16T13:40:52;7.13;;;1.70;;
11034;SDS011;5571;48.110;-1.706;2023-03-16T13:43:21;4.28;;;2.28;;
11034;SDS011;5571;48.110;-1.706;2023-03-16T13:45:52;9.27;;;2.28;;
11034;SDS011;5571;48.110;-1.706;2023-03-16T13:48:18;5.80;;;2.00;;
11034;SDS011;5571;48.110;-1.706;2023-03-16T13:50:44;6.20;;;2.08;;
11034;SDS011;5571;48.110;-1.706;2023-03-16T13:53:28;3.42;;;1.88;;
11034;SDS011;5571;48.110;-1.706;2023-03-16T13:55:56;6.50;;;2.25;;
11034;SDS011;5571;48.110;-1.706;2023-03-16T14:00:55;4.85;;;1.83;;
11034;SDS011;5571;48.110;-1.706;2023-03-16T14:03:22;9.32;;;2.15;;
11034;SDS011;5571;48.110;-1.706;2023-03-16T14:06:03;3.17;;;1.75;;
11034;SDS011;5571;48.110;-1.706;2023-03-16T14:08:30;4.93;;;1.88;;
11034;SDS011;5571;48.110;-1.706;2023-03-16T14:10:57;5.57;;;2.13;;
11034;SDS011;5571;48.110;-1.706;2023-03-16T14:15:55;1.67;;;1.40;;
11034;SDS011;5571;48.110;-1.706;2023-03-16T14:18:26;12.15;;;2.22;;
11034;SDS011;5571;48.110;-1.706;2023-03-16T14:20:59;5.38;;;1.90;;
11034;SDS011;5571;48.110;-1.706;2023-03-16T14:23:39;8.90;;;1.98;;
11034;SDS011;5571;48.110;-1.706;2023-03-16T14:26:12;3.85;;;1.58;;
11034;SDS011;5571;48.110;-1.706;2023-03-16T14:28:40;4.82;;;2.08;;
11034;SDS011;5571;48.110;-1.706;2023-03-16T14:31:18;6.57;;;2.10;;
11034;SDS011;5571;48.110;-1.706;2023-03-16T14:33:44;6.68;;;1.65;;
11034;SDS011;5571;48.110;-1.706;2023-03-16T14:36:14;4.63;;;1.45;;
11034;SDS011;5571;48.110;-1.706;2023-03-16T14:38:42;4.40;;;1.55;;
11034;SDS011;5571;48.110;-1.706;2023-03-16T14:41:24;4.75;;;2.13;;
11034;SDS011;5571;48.110;-1.706;2023-03-16T14:43:56;2.80;;;1.67;;
11034;SDS011;5571;48.110;-1.706;2023-03-16T14:46:36;4.05;;;1.58;;
11034;SDS011;5571;48.110;-1.706;2023-03-16T14:49:21;5.85;;;1.92;;
11034;SDS011;5571;48.110;-1.706;2023-03-16T14:51:52;6.43;;;2.40;;
11034;SDS011;5571;48.110;-1.706;2023-03-16T14:54:22;6.43;;;2.10;;
11034;SDS011;5571;48.110;-1.706;2023-03-16T14:56:52;5.32;;;1.83;;
11034;SDS011;5571;48.110;-1.706;2023-03-16T14:59:29;4.63;;;1.77;;
11034;SDS011;5571;48.110;-1.706;2023-03-16T15:01:56;4.03;;;1.48;;
11034;SDS011;5571;48.110;-1.706;2023-03-16T15:04:27;3.20;;;1.90;;
11034;SDS011;5571;48.110;-1.706;2023-03-16T15:06:58;5.25;;;1.83;;
11034;SDS011;5571;48.110;-1.706;2023-03-16T15:11:56;7.35;;;1.92;;
11034;SDS011;5571;48.110;-1.706;2023-03-16T15:14:22;6.55;;;1.75;;
11034;SDS011;5571;48.110;-1.706;2023-03-16T15:17:06;3.70;;;1.60;;
11034;SDS011;5571;48.110;-1.706;2023-03-16T15:19:33;3.53;;;2.08;;
11034;SDS011;5571;48.110;-1.706;2023-03-16T15:21:59;4.93;;;2.17;;
11034;SDS011;5571;48.110;-1.706;2023-03-16T15:24:27;5.00;;;1.80;;
11034;SDS011;5571;48.110;-1.706;2023-03-16T15:26:54;5.20;;;1.67;;
11034;SDS011;5571;48.110;-1.706;2023-03-16T15:29:20;7.00;;;2.10;;
11034;SDS011;5571;48.110;-1.706;2023-03-16T15:31:46;3.80;;;1.55;;
11034;SDS011;5571;48.110;-1.706;2023-03-16T15:34:12;2.60;;;1.85;;
11034;SDS011;5571;48.110;-1.706;2023-03-16T15:36:37;7.00;;;2.03;;
11034;SDS011;5571;48.110;-1.706;2023-03-16T15:39:03;6.70;;;2.30;;
11034;SDS011;5571;48.110;-1.706;2023-03-16T15:41:29;5.18;;;1.70;;
11034;SDS011;5571;48.110;-1.706;2023-03-16T15:43:55;4.78;;;2.03;;
11034;SDS011;5571;48.110;-1.706;2023-03-16T15:46:25;8.52;;;2.38;;
11034;SDS011;5571;48.110;-1.706;2023-03-16T15:48:52;4.85;;;2.05;;
11034;SDS011;5571;48.110;-1.706;2023-03-16T15:51:22;4.25;;;2.10;;
11034;SDS011;5571;48.110;-1.706;2023-03-16T15:53:52;6.88;;;2.22;;
11034;SDS011;5571;48.110;-1.706;2023-03-16T15:56:22;5.78;;;2.00;;
11034;SDS011;5571;48.110;-1.706;2023-03-16T15:58:53;5.30;;;2.60;;
11034;SDS011;5571;48.110;-1.706;2023-03-16T16:01:25;6.32;;;2.22;;
11034;SDS011;5571;48.110;-1.706;2023-03-16T16:03:55;4.25;;;2.00;;
11034;SDS011;5571;48.110;-1.706;2023-03-16T16:06:20;8.45;;;2.50;;
11034;SDS011;5571;48.110;-1.706;2023-03-16T16:08:47;8.50;;;2.60;;
11034;SDS011;5571;48.110;-1.706;2023-03-16T16:11:31;6.97;;;2.47;;
11034;SDS011;5571;48.110;-1.706;2023-03-16T16:13:57;6.22;;;2.17;;
11034;SDS011;5571;48.110;-1.706;2023-03-16T16:16:25;5.35;;;3.00;;
11034;SDS011;5571;48.110;-1.706;2023-03-16T16:18:52;6.85;;;2.40;;
11034;SDS011;5571;48.110;-1.706;2023-03-16T16:21:19;7.43;;;2.63;;
11034;SDS011;5571;48.110;-1.706;2023-03-16T16:23:48;8.82;;;2.80;;
11034;SDS011;5571;48.110;-1.706;2023-03-16T16:28:54;7.47;;;2.67;;
11034;SDS011;5571;48.110;-1.706;2023-03-16T16:31:22;5.32;;;2.30;;
11034;SDS011;5571;48.110;-1.706;2023-03-16T16:33:50;7.18;;;2.47;;
11034;SDS011;5571;48.110;-1.706;2023-03-16T16:36:17;8.90;;;2.30;;
11034;SDS011;5571;48.110;-1.706;2023-03-16T16:38:47;6.07;;;2.33;;